X  Close Metar Aviation Weather Data     CYYC Calgary International
Temperature
-25°C Temperature
-29°C Dewpoint
69% Humidity



Wind
10 KM/H
6 MPH
3 M/S
5 KTS



330°
NNW
Current Conditions

Clear Clear
Pressure 1024.42 (hPa) - 30.25 (inHg)
Visibility 15 (mile) - 24.1 (km)
Airport
Airport-code CYYC

Location: Calgary International
Distance: 4 (km)

Metar:
CYYC 180800Z 33005KT 15SM SKC M25/M29 A3025 RMK SLP365

Time: 18-01-2020 01:00 MST